Time;durP1;ratioP1;P1;durP2;ratioP2;P2;SDS_P1;SDS_P2;PMS_P1;PMS_P2;Temp;Humidity;BMP_temperature;BMP_pressure;BME280_temperature;BME280_humidity;BME280_pressure;Samples;Min_cycle;Max_cycle;Signal;HPM_P1;HPM_P2
2022/12/14 00:00:50;;;;;;;9.18;6.43;;;9.20;99.90;;;;;;5081958;28;20119;-86
2022/12/14 00:03:16;;;;;;;7.85;7.05;;;9.20;99.90;;;;;;5093817;28;20028;-83
2022/12/14 00:05:43;;;;;;;10.10;7.53;;;9.20;99.90;;;;;;5087005;28;20062;-87
2022/12/14 00:08:10;;;;;;;11.05;6.85;;;9.20;99.90;;;;;;5077076;28;20020;-86
2022/12/14 00:10:37;;;;;;;6.93;6.03;;;9.20;99.90;;;;;;5099212;28;20032;-84
2022/12/14 00:13:04;;;;;;;7.82;6.10;;;9.20;99.90;;;;;;5096171;28;20372;-84
2022/12/14 00:15:31;;;;;;;9.38;6.22;;;9.30;99.90;;;;;;5098186;28;20446;-84
2022/12/14 00:17:58;;;;;;;6.57;5.35;;;9.30;99.90;;;;;;5096986;28;20103;-84
2022/12/14 00:20:24;;;;;;;7.72;5.35;;;9.40;99.90;;;;;;5081133;28;20024;-84
2022/12/14 00:22:50;;;;;;;5.43;4.85;;;9.40;99.90;;;;;;5079347;28;20470;-84
2022/12/14 00:25:16;;;;;;;5.60;5.10;;;9.40;99.90;;;;;;5071366;28;20053;-82
2022/12/14 00:27:45;;;;;;;5.63;4.97;;;9.40;99.90;;;;;;5096572;28;20108;-85
2022/12/14 00:30:14;;;;;;;5.10;4.65;;;9.50;99.90;;;;;;5077074;28;20131;-84
2022/12/14 00:32:40;;;;;;;6.40;5.38;;;9.50;99.90;;;;;;5076401;28;20114;-83
2022/12/14 00:35:08;;;;;;;6.05;5.07;;;9.50;99.90;;;;;;5080239;28;20056;-84
2022/12/14 00:37:35;;;;;;;4.90;4.30;;;9.50;99.90;;;;;;5096970;28;20024;-85
2022/12/14 00:40:01;;;;;;;4.82;4.32;;;9.50;99.90;;;;;;5071917;28;20028;-85
2022/12/14 00:42:27;;;;;;;5.45;4.80;;;9.50;99.90;;;;;;5094122;28;20150;-85
2022/12/14 00:44:53;;;;;;;5.47;4.82;;;9.50;99.90;;;;;;5093008;28;20058;-82
2022/12/14 00:47:18;;;;;;;6.05;4.80;;;9.50;99.90;;;;;;5079600;28;20476;-86
2022/12/14 00:49:44;;;;;;;5.20;4.53;;;9.50;99.90;;;;;;5093312;28;20027;-86
2022/12/14 00:52:10;;;;;;;5.30;4.80;;;9.50;99.90;;;;;;5098364;28;20438;-85
2022/12/14 00:54:36;;;;;;;5.07;4.60;;;9.50;99.90;;;;;;5095641;28;20031;-86
2022/12/14 00:57:02;;;;;;;4.85;4.45;;;9.50;99.90;;;;;;5098639;28;20035;-84
2022/12/14 00:59:27;;;;;;;6.53;4.50;;;9.50;99.90;;;;;;5087537;28;20062;-84
2022/12/14 01:01:53;;;;;;;5.97;4.68;;;9.50;99.90;;;;;;5098364;28;20028;-84
2022/12/14 01:04:21;;;;;;;4.68;4.07;;;9.50;99.90;;;;;;5086097;28;20085;-83
2022/12/14 01:06:49;;;;;;;4.97;4.30;;;9.50;99.90;;;;;;5094997;28;20517;-83
2022/12/14 01:09:16;;;;;;;4.90;4.32;;;9.50;99.90;;;;;;5079291;28;20028;-84
2022/12/14 01:11:43;;;;;;;6.60;4.60;;;9.50;99.90;;;;;;5098864;28;20413;-84
2022/12/14 01:14:10;;;;;;;4.50;4.10;;;9.50;99.90;;;;;;5090559;28;20050;-82
2022/12/14 01:16:36;;;;;;;7.63;4.50;;;9.60;99.90;;;;;;5080306;28;20103;-83
2022/12/14 01:19:02;;;;;;;6.25;4.28;;;9.60;99.90;;;;;;5089664;28;20467;-84
2022/12/14 01:21:29;;;;;;;5.63;4.13;;;9.60;99.90;;;;;;5090934;28;20500;-84
2022/12/14 01:23:57;;;;;;;4.13;3.72;;;9.60;99.90;;;;;;5071541;28;20128;-84
2022/12/14 01:26:24;;;;;;;4.30;3.85;;;9.70;99.90;;;;;;5077760;28;20103;-82
2022/12/14 01:28:54;;;;;;;4.30;3.92;;;9.70;99.90;;;;;;5069265;28;20048;-85
2022/12/14 01:31:24;;;;;;;4.63;3.40;;;9.70;99.90;;;;;;5077859;28;20038;-86
2022/12/14 01:33:49;;;;;;;3.50;3.20;;;9.70;99.90;;;;;;5068774;28;20393;-84
2022/12/14 01:36:19;;;;;;;3.90;3.50;;;9.70;99.90;;;;;;5076198;28;20031;-85
2022/12/14 01:38:45;;;;;;;3.53;3.00;;;9.70;99.90;;;;;;5066707;28;20056;-85
2022/12/14 01:41:37;;;;;;;3.95;3.55;;;9.70;99.90;;;;;;5074962;28;20400;-85
2022/12/14 01:44:09;;;;;;;3.70;3.33;;;9.70;99.90;;;;;;5069754;28;20037;-85
2022/12/14 01:46:47;;;;;;;3.90;3.50;;;9.70;99.90;;;;;;5076062;28;20032;-83
2022/12/14 01:49:18;;;;;;;4.88;3.72;;;9.70;99.90;;;;;;5069961;28;20027;-85
2022/12/14 01:51:53;;;;;;;2.90;2.70;;;9.70;99.90;;;;;;5075921;28;20021;-85
2022/12/14 01:54:20;;;;;;;3.47;3.13;;;9.70;99.90;;;;;;5071412;28;20037;-85
2022/12/14 01:56:46;;;;;;;3.47;3.17;;;9.70;99.90;;;;;;5075913;28;20092;-84
2022/12/14 01:59:22;;;;;;;4.05;3.13;;;9.70;99.90;;;;;;5075203;28;20064;-84
2022/12/14 02:01:48;;;;;;;3.22;2.92;;;9.70;99.90;;;;;;5071448;28;20031;-85
2022/12/14 02:04:17;;;;;;;3.28;2.97;;;9.70;99.90;;;;;;5070469;28;20025;-84
2022/12/14 02:06:46;;;;;;;4.97;2.97;;;9.70;99.90;;;;;;5067967;28;20029;-85
2022/12/14 02:09:19;;;;;;;4.50;3.00;;;9.60;99.90;;;;;;5065403;28;20397;-85
2022/12/14 02:11:57;;;;;;;5.05;3.30;;;9.60;99.90;;;;;;5066952;28;20019;-85
2022/12/14 02:14:24;;;;;;;4.10;3.50;;;9.60;99.90;;;;;;5071799;28;20033;-85
2022/12/14 02:16:52;;;;;;;3.38;3.08;;;9.70;99.90;;;;;;5074400;28;20062;-85
2022/12/14 02:19:18;;;;;;;3.72;3.40;;;9.70;99.90;;;;;;5071031;28;20036;-85
2022/12/14 02:22:08;;;;;;;4.93;3.50;;;9.60;99.90;;;;;;5075221;28;20032;-85
2022/12/14 02:24:55;;;;;;;3.50;3.20;;;9.60;99.90;;;;;;5070333;28;20389;-85
2022/12/14 02:27:33;;;;;;;6.15;3.60;;;9.50;99.90;;;;;;5096117;28;20032;-85
2022/12/14 02:30:02;;;;;;;4.38;3.28;;;9.50;99.90;;;;;;5068422;28;20093;-84
2022/12/14 02:32:41;;;;;;;3.10;2.80;;;9.50;99.90;;;;;;5089493;28;20012;-85
2022/12/14 02:35:26;;;;;;;3.28;2.97;;;9.40;99.90;;;;;;5089979;28;20047;-83
2022/12/14 02:38:10;;;;;;;3.33;3.03;;;9.40;99.90;;;;;;5074196;28;20021;-84
2022/12/14 02:40:57;;;;;;;3.05;2.80;;;9.40;99.90;;;;;;5088640;28;20055;-83
2022/12/14 02:43:48;;;;;;;3.63;3.10;;;9.40;99.90;;;;;;5093700;28;20069;-83
2022/12/14 02:46:36;;;;;;;2.72;2.42;;;9.40;99.90;;;;;;5094849;28;20020;-84
2022/12/14 02:49:14;;;;;;;3.75;2.47;;;9.40;99.90;;;;;;5071875;28;20028;-83
2022/12/14 02:52:09;;;;;;;2.60;2.40;;;9.40;99.90;;;;;;5093398;28;20024;-84
2022/12/14 02:54:38;;;;;;;2.40;2.20;;;9.40;99.90;;;;;;5073868;28;20439;-83
2022/12/14 02:57:39;;;;;;;2.55;2.30;;;9.40;99.90;;;;;;5080822;28;20106;-81
2022/12/14 03:00:06;;;;;;;2.60;2.40;;;9.40;99.90;;;;;;5063773;28;20059;-84
2022/12/14 03:02:42;;;;;;;2.80;2.60;;;9.40;99.90;;;;;;5080365;28;20054;-84
2022/12/14 03:05:09;;;;;;;3.10;2.80;;;9.40;99.90;;;;;;5081693;28;20430;-85
2022/12/14 03:07:53;;;;;;;3.85;2.65;;;9.40;99.90;;;;;;5098672;28;20884;-83
2022/12/14 03:10:54;;;;;;;3.22;2.92;;;9.40;99.90;;;;;;5097871;28;20035;-82
2022/12/14 03:13:38;;;;;;;3.05;2.50;;;9.40;99.90;;;;;;5079149;28;20028;-83
2022/12/14 03:16:23;;;;;;;2.88;2.65;;;9.40;99.90;;;;;;5098908;28;20027;-84
2022/12/14 03:19:06;;;;;;;3.42;2.72;;;9.40;99.90;;;;;;5089809;28;20063;-82
2022/12/14 03:21:38;;;;;;;2.95;2.65;;;9.40;99.90;;;;;;5100252;28;20053;-84
2022/12/14 03:24:14;;;;;;;4.68;2.85;;;9.40;99.90;;;;;;5088775;28;20036;-84
2022/12/14 03:26:55;;;;;;;4.75;2.92;;;9.40;99.90;;;;;;5100267;28;20040;-84
2022/12/14 03:29:27;;;;;;;4.75;2.80;;;9.30;99.90;;;;;;5075794;28;20016;-83
2022/12/14 03:31:57;;;;;;;3.33;2.70;;;9.30;99.90;;;;;;5090404;28;20031;-84
2022/12/14 03:34:34;;;;;;;3.60;2.90;;;9.30;99.90;;;;;;5094353;28;20020;-83
2022/12/14 03:37:16;;;;;;;3.38;3.00;;;9.30;99.90;;;;;;5073580;28;20270;-82
2022/12/14 03:39:44;;;;;;;3.50;3.20;;;9.30;99.90;;;;;;5093959;28;20027;-82
2022/12/14 03:42:21;;;;;;;3.50;3.20;;;9.30;99.90;;;;;;5081969;28;20107;-83
2022/12/14 03:44:59;;;;;;;3.28;2.97;;;9.30;99.90;;;;;;5081009;28;20091;-83
2022/12/14 03:47:44;;;;;;;3.33;3.03;;;9.30;99.90;;;;;;5098465;28;20048;-82
2022/12/14 03:50:58;;;;;;;4.07;3.20;;;9.30;99.90;;;;;;5094799;28;20020;-82
2022/12/14 03:53:32;;;;;;;5.60;3.10;;;9.30;99.90;;;;;;5097141;28;20020;-83
2022/12/14 03:56:11;;;;;;;3.45;3.13;;;9.30;99.90;;;;;;5080657;28;20095;-82
2022/12/14 03:58:47;;;;;;;3.22;2.70;;;9.30;99.90;;;;;;5078324;28;20036;-82
2022/12/14 04:01:17;;;;;;;3.63;3.03;;;9.30;99.90;;;;;;5081270;28;20031;-82
2022/12/14 04:04:11;;;;;;;4.85;2.70;;;9.30;99.90;;;;;;5075495;28;20047;-81
2022/12/14 04:06:45;;;;;;;4.00;3.15;;;9.30;99.90;;;;;;5078768;28;20028;-80
2022/12/14 04:09:40;;;;;;;3.00;2.70;;;9.30;99.90;;;;;;5074195;28;20035;-81
2022/12/14 04:20:45;;;;;;;4.32;3.40;;;9.20;99.90;;;;;;5094531;28;20022;-82
2022/12/14 04:26:03;;;;;;;4.85;4.07;;;9.20;99.90;;;;;;5093816;28;20025;-82
2022/12/14 04:26:11;;;;;;;6.38;4.03;;;9.20;99.90;;;;;;5096763;28;20044;-81
2022/12/14 04:31:32;;;;;;;4.22;3.83;;;9.10;99.90;;;;;;5088613;28;20089;-82
2022/12/14 04:34:03;;;;;;;4.07;3.63;;;9.10;99.90;;;;;;5076781;28;20108;-82
2022/12/14 04:36:32;;;;;;;4.43;4.03;;;9.10;99.90;;;;;;5080561;28;20074;-83
2022/12/14 04:39:06;;;;;;;4.82;4.13;;;9.00;99.90;;;;;;5092516;28;20081;-82
2022/12/14 04:41:37;;;;;;;4.65;4.18;;;9.00;99.90;;;;;;5080699;28;20119;-83
2022/12/14 04:44:08;;;;;;;5.00;4.50;;;8.90;99.90;;;;;;5076106;28;20024;-83
2022/12/14 04:46:38;;;;;;;4.75;4.30;;;8.80;99.90;;;;;;5080610;28;20024;-83
2022/12/14 04:49:16;;;;;;;6.30;4.47;;;8.80;99.90;;;;;;5094914;28;20107;-83
2022/12/14 04:51:44;;;;;;;4.28;3.88;;;8.70;99.90;;;;;;5098600;28;20053;-83
2022/12/14 04:54:22;;;;;;;5.55;4.55;;;8.70;99.90;;;;;;5077229;28;20020;-83
2022/12/14 04:57:09;;;;;;;5.75;4.38;;;8.70;99.90;;;;;;5093740;28;20043;-83
2022/12/14 04:59:36;;;;;;;4.93;4.45;;;8.70;99.90;;;;;;5094228;28;20086;-83
2022/12/14 05:02:21;;;;;;;4.90;4.20;;;8.70;99.90;;;;;;5095976;28;20028;-82
2022/12/14 05:04:58;;;;;;;4.22;3.83;;;8.70;99.90;;;;;;5077330;28;20519;-82
2022/12/14 05:07:47;;;;;;;8.68;4.40;;;8.70;99.90;;;;;;5097786;28;20047;-82
2022/12/14 05:10:31;;;;;;;5.72;4.80;;;8.60;99.90;;;;;;5080155;28;20051;-82
2022/12/14 05:13:07;;;;;;;5.18;4.68;;;8.60;99.90;;;;;;5089537;28;20016;-82
2022/12/14 05:15:40;;;;;;;5.45;4.35;;;8.60;99.90;;;;;;5097215;28;20020;-82
2022/12/14 05:18:06;;;;;;;5.28;4.78;;;8.60;99.90;;;;;;5074626;28;20058;-82
2022/12/14 05:20:32;;;;;;;11.95;5.15;;;8.50;99.90;;;;;;5092295;28;20027;-82
2022/12/14 05:22:58;;;;;;;5.78;5.28;;;8.60;99.90;;;;;;5076029;28;20031;-82
2022/12/14 05:25:24;;;;;;;5.88;5.28;;;8.50;99.90;;;;;;5090254;28;20121;-82
2022/12/14 05:27:50;;;;;;;7.53;5.13;;;8.50;99.90;;;;;;5093842;28;20842;-82
2022/12/14 05:30:16;;;;;;;8.95;5.13;;;8.50;99.90;;;;;;5093690;28;20036;-83
2022/12/14 05:32:42;;;;;;;7.68;5.53;;;8.40;99.90;;;;;;5078449;28;20024;-82
2022/12/14 05:35:10;;;;;;;8.77;5.78;;;8.40;99.90;;;;;;5073950;28;20008;-83
2022/12/14 05:37:36;;;;;;;6.32;5.72;;;8.40;99.90;;;;;;5096219;28;20042;-81
2022/12/14 05:40:02;;;;;;;6.38;5.65;;;8.40;99.90;;;;;;5093448;28;20024;-82
2022/12/14 05:42:30;;;;;;;8.77;6.13;;;8.40;99.90;;;;;;5078281;28;20023;-82
2022/12/14 05:44:56;;;;;;;10.88;6.03;;;8.40;99.90;;;;;;5076149;28;20085;-81
2022/12/14 05:47:22;;;;;;;6.13;5.07;;;8.40;99.90;;;;;;5078840;28;20122;-82
2022/12/14 05:49:48;;;;;;;7.13;6.25;;;8.40;99.90;;;;;;5075357;28;20070;-82
2022/12/14 05:52:13;;;;;;;10.80;6.53;;;8.40;99.90;;;;;;5079564;28;20024;-82
2022/12/14 05:54:39;;;;;;;8.30;5.88;;;8.40;99.90;;;;;;5094138;28;20104;-82
2022/12/14 05:57:06;;;;;;;8.05;6.78;;;8.40;99.90;;;;;;5079382;28;20061;-82
2022/12/14 05:59:32;;;;;;;7.13;6.43;;;8.40;99.90;;;;;;5082409;28;20016;-82
2022/12/14 06:01:58;;;;;;;10.18;6.57;;;8.40;99.90;;;;;;5096666;28;20506;-84
2022/12/14 06:04:24;;;;;;;11.18;7.40;;;8.50;99.90;;;;;;5081686;28;20028;-82
2022/12/14 06:06:50;;;;;;;9.70;8.07;;;8.50;99.90;;;;;;5095463;28;20027;-82
2022/12/14 06:09:16;;;;;;;8.82;7.53;;;8.60;99.90;;;;;;5090234;28;20099;-82
2022/12/14 06:11:43;;;;;;;10.52;7.90;;;8.50;99.90;;;;;;5085678;28;20055;-83
2022/12/14 06:14:10;;;;;;;7.47;6.68;;;8.50;99.90;;;;;;5072479;28;20070;-82
2022/12/14 06:16:40;;;;;;;10.60;7.90;;;8.50;99.90;;;;;;5077894;28;20143;-83
2022/12/14 06:19:06;;;;;;;16.02;8.32;;;8.50;99.90;;;;;;5087201;28;20028;-82
2022/12/14 06:21:34;;;;;;;10.13;7.82;;;8.50;99.90;;;;;;5079804;28;20017;-82
2022/12/14 06:24:01;;;;;;;14.02;8.63;;;8.50;99.90;;;;;;5070929;28;20040;-83
2022/12/14 06:26:28;;;;;;;12.68;8.20;;;8.50;99.90;;;;;;5077492;28;20032;-83
2022/12/14 06:28:55;;;;;;;8.65;7.50;;;8.60;99.90;;;;;;5089947;28;20064;-83
2022/12/14 06:31:23;;;;;;;12.82;8.38;;;8.50;99.90;;;;;;5095135;28;20687;-83
2022/12/14 06:33:50;;;;;;;11.23;8.05;;;8.60;99.90;;;;;;5091215;28;20562;-83
2022/12/14 06:36:23;;;;;;;10.13;9.13;;;8.60;99.90;;;;;;5077304;28;20510;-84
2022/12/14 06:38:50;;;;;;;9.45;8.45;;;8.60;99.90;;;;;;5082775;28;20031;-84
2022/12/14 06:41:16;;;;;;;16.30;11.75;;;8.60;99.90;;;;;;5094757;28;20036;-85
2022/12/14 06:43:42;;;;;;;13.10;9.43;;;8.60;99.90;;;;;;5089394;28;20054;-85
2022/12/14 06:46:11;;;;;;;13.27;10.43;;;8.60;99.90;;;;;;5077648;28;20020;-85
2022/12/14 06:48:37;;;;;;;21.90;12.27;;;8.70;99.90;;;;;;5074888;28;20488;-84
2022/12/14 06:51:04;;;;;;;22.67;15.90;;;8.70;99.90;;;;;;5094407;28;20016;-84
2022/12/14 06:53:30;;;;;;;17.27;12.75;;;8.70;99.90;;;;;;5076454;28;20017;-84
2022/12/14 06:56:16;;;;;;;18.80;12.50;;;8.70;99.90;;;;;;5094546;28;20039;-84
2022/12/14 06:58:43;;;;;;;19.30;12.48;;;8.70;99.90;;;;;;5089256;28;20020;-85
2022/12/14 07:01:14;;;;;;;12.60;10.30;;;8.70;99.90;;;;;;5088351;28;20032;-84
2022/12/14 07:03:42;;;;;;;12.10;10.70;;;8.70;99.90;;;;;;5090416;28;20023;-84
2022/12/14 07:06:09;;;;;;;13.75;10.55;;;8.70;99.90;;;;;;5077096;28;20395;-84
2022/12/14 07:08:37;;;;;;;17.17;11.15;;;8.70;99.90;;;;;;5090762;28;20508;-84
2022/12/14 07:11:05;;;;;;;15.10;11.90;;;8.70;99.90;;;;;;5069170;28;20481;-83
2022/12/14 07:13:32;;;;;;;16.00;11.15;;;8.60;99.90;;;;;;5063911;28;20503;-83
2022/12/14 07:15:59;;;;;;;12.95;9.70;;;8.60;99.90;;;;;;5076596;28;20056;-85
2022/12/14 07:18:25;;;;;;;12.63;10.50;;;8.60;99.90;;;;;;5088695;28;20025;-84
2022/12/14 07:21:01;;;;;;;18.65;10.95;;;8.60;99.90;;;;;;5074172;28;20036;-85
2022/12/14 07:23:29;;;;;;;13.13;11.43;;;8.60;99.90;;;;;;5071602;28;20031;-85
2022/12/14 07:26:03;;;;;;;13.05;10.85;;;8.70;99.90;;;;;;5071217;28;20041;-85
2022/12/14 07:28:29;;;;;;;11.80;10.60;;;8.70;99.90;;;;;;5091492;28;20024;-85
2022/12/14 07:30:56;;;;;;;15.38;11.70;;;8.70;99.90;;;;;;5059291;28;20028;-84
2022/12/14 07:33:22;;;;;;;13.30;10.82;;;8.70;99.90;;;;;;5072723;28;20056;-86
2022/12/14 07:35:49;;;;;;;14.82;10.63;;;8.70;99.90;;;;;;5092757;28;20028;-85
2022/12/14 07:38:15;;;;;;;17.25;11.02;;;8.70;99.90;;;;;;5073796;28;20397;-85
2022/12/14 07:40:42;;;;;;;18.33;13.57;;;8.70;99.90;;;;;;5089084;28;20377;-85
2022/12/14 07:43:08;;;;;;;25.55;16.42;;;8.70;99.90;;;;;;5092682;28;20051;-84
2022/12/14 07:45:34;;;;;;;185.25;93.53;;;8.70;99.90;;;;;;5080730;28;20028;-84
2022/12/14 07:48:00;;;;;;;420.98;187.05;;;8.70;99.90;;;;;;5098299;28;20020;-83
2022/12/14 07:50:26;;;;;;;324.58;133.82;;;8.70;99.90;;;;;;5076023;28;20035;-83
2022/12/14 07:52:51;;;;;;;306.50;147.88;;;8.80;99.90;;;;;;5076613;28;20071;-83
2022/12/14 07:55:17;;;;;;;371.35;208.07;;;8.90;99.90;;;;;;5090926;28;20495;-83
2022/12/14 07:57:43;;;;;;;171.55;94.35;;;8.90;99.90;;;;;;5095690;28;20025;-84
2022/12/14 08:00:09;;;;;;;116.13;62.08;;;9.00;99.90;;;;;;5091720;28;20039;-83
2022/12/14 08:02:35;;;;;;;360.58;211.93;;;9.00;99.90;;;;;;5078093;28;20031;-84
2022/12/14 08:05:01;;;;;;;60.47;38.38;;;9.00;99.90;;;;;;5089420;28;20538;-83
2022/12/14 08:07:30;;;;;;;61.35;38.53;;;9.10;99.90;;;;;;5083752;28;20038;-83
2022/12/14 08:09:56;;;;;;;21.48;17.17;;;9.10;99.90;;;;;;5074029;28;20031;-81
2022/12/14 08:12:22;;;;;;;27.67;18.73;;;9.10;99.90;;;;;;5094146;28;20514;-81
2022/12/14 08:14:48;;;;;;;31.65;23.23;;;9.20;99.90;;;;;;5092361;28;20019;-82
2022/12/14 08:17:14;;;;;;;22.50;17.80;;;9.30;99.90;;;;;;5079765;28;20113;-81
2022/12/14 08:19:40;;;;;;;53.88;42.78;;;9.30;99.90;;;;;;5066113;28;20055;-81
2022/12/14 08:22:06;;;;;;;19.75;16.27;;;9.30;99.90;;;;;;5095408;28;20024;-82
2022/12/14 08:24:31;;;;;;;47.95;38.95;;;9.40;99.90;;;;;;5068436;28;20052;-81
2022/12/14 08:26:57;;;;;;;27.58;22.48;;;9.50;99.90;;;;;;5076375;28;20032;-81
2022/12/14 08:29:23;;;;;;;23.75;15.73;;;9.50;99.90;;;;;;5066960;28;20028;-81
2022/12/14 08:31:49;;;;;;;21.45;15.93;;;9.50;99.90;;;;;;5075926;28;20749;-81
2022/12/14 08:34:21;;;;;;;21.13;16.80;;;9.60;99.90;;;;;;5065681;28;20028;-81
2022/12/14 08:36:47;;;;;;;25.00;16.88;;;9.60;99.90;;;;;;5077499;28;20021;-81
2022/12/14 08:39:14;;;;;;;23.95;17.23;;;9.60;99.90;;;;;;5068411;28;20077;-80
2022/12/14 08:41:40;;;;;;;27.92;20.00;;;9.60;99.90;;;;;;5077632;28;20384;-80
2022/12/14 08:44:07;;;;;;;39.22;28.33;;;9.60;99.90;;;;;;5071824;28;20518;-80
2022/12/14 08:46:36;;;;;;;28.33;20.33;;;9.60;99.90;;;;;;5076263;28;20024;-80
2022/12/14 08:49:02;;;;;;;19.42;14.52;;;9.70;99.90;;;;;;5071156;28;20016;-80
2022/12/14 08:51:28;;;;;;;19.90;17.00;;;9.80;99.90;;;;;;5076640;28;20044;-80
2022/12/14 08:53:55;;;;;;;20.60;14.40;;;9.80;99.90;;;;;;5073258;28;20032;-80
2022/12/14 08:56:26;;;;;;;15.57;12.52;;;10.00;99.90;;;;;;5074969;28;20032;-80
2022/12/14 08:58:52;;;;;;;;;;;10.20;99.90;;;;;;5068287;28;20059;-80
2022/12/14 09:01:21;;;;;;;13.40;11.88;;;10.40;99.90;;;;;;5072626;28;19905;-81
2022/12/14 09:03:47;;;;;;;13.95;11.10;;;10.40;99.90;;;;;;5071766;28;20025;-80
2022/12/14 09:06:17;;;;;;;41.92;33.45;;;10.50;99.90;;;;;;5074684;28;20030;-80
2022/12/14 09:08:43;;;;;;;28.85;20.95;;;10.60;99.90;;;;;;5070836;28;20107;-80
2022/12/14 09:11:14;;;;;;;11.57;10.25;;;10.70;99.90;;;;;;5071152;28;20028;-80
2022/12/14 09:13:40;;;;;;;;;;;10.80;99.90;;;;;;5068929;28;20059;-80
2022/12/14 09:16:20;;;;;;;10.23;7.93;;;10.80;99.90;;;;;;5071504;28;19909;-80
2022/12/14 09:18:47;;;;;;;8.68;7.57;;;10.80;99.90;;;;;;5064835;28;20037;-80
2022/12/14 09:21:13;;;;;;;11.20;8.02;;;10.90;99.90;;;;;;5072626;28;20388;-80
2022/12/14 09:23:40;;;;;;;10.00;7.43;;;10.90;99.90;;;;;;5075465;28;20461;-81
2022/12/14 09:26:14;;;;;;;11.73;8.65;;;10.90;99.90;;;;;;5096688;28;20400;-81
2022/12/14 09:28:43;;;;;;;10.38;7.90;;;10.90;99.90;;;;;;5088432;28;20035;-80
2022/12/14 09:31:12;;;;;;;9.45;7.90;;;10.90;99.90;;;;;;5092543;28;20487;-81
2022/12/14 09:33:38;;;;;;;10.73;7.43;;;11.00;99.90;;;;;;5093580;28;20078;-82
2022/12/14 09:36:12;;;;;;;10.50;7.32;;;11.10;99.90;;;;;;5094286;28;20031;-82
2022/12/14 09:38:39;;;;;;;9.35;6.57;;;11.10;99.90;;;;;;5082511;28;20036;-82
2022/12/14 09:41:14;;;;;;;10.48;7.80;;;11.20;99.90;;;;;;5094556;28;20102;-82
2022/12/14 09:43:42;;;;;;;9.50;6.80;;;11.40;99.90;;;;;;5091239;28;20041;-83
2022/12/14 09:46:26;;;;;;;11.13;8.73;;;11.40;99.90;;;;;;5079486;28;20439;-82
2022/12/14 09:48:54;;;;;;;12.23;10.32;;;11.60;99.90;;;;;;5090852;28;20032;-82
2022/12/14 09:51:24;;;;;;;16.48;13.30;;;11.70;99.90;;;;;;5079416;28;20029;-83
2022/12/14 09:53:58;;;;;;;21.20;12.70;;;11.70;99.90;;;;;;5094280;28;20053;-83
2022/12/14 09:56:25;;;;;;;20.45;12.82;;;11.90;99.90;;;;;;5095028;28;20027;-81
2022/12/14 09:58:55;;;;;;;13.90;9.98;;;12.00;99.90;;;;;;5088755;28;20032;-84
2022/12/14 10:01:23;;;;;;;15.27;9.23;;;12.00;99.90;;;;;;5088826;28;20046;-83
2022/12/14 10:04:07;;;;;;;9.43;7.45;;;12.10;99.90;;;;;;5086212;28;20028;-83
2022/12/14 10:06:49;;;;;;;9.45;6.35;;;12.20;99.90;;;;;;5081686;28;20040;-84
2022/12/14 10:09:38;;;;;;;8.13;5.53;;;12.30;99.90;;;;;;5089746;28;20480;-85
2022/12/14 10:12:16;;;;;;;7.78;6.20;;;12.40;99.90;;;;;;5083107;28;20062;-85
2022/12/14 10:15:00;;;;;;;9.00;5.50;;;12.40;99.90;;;;;;5088713;28;20500;-86
2022/12/14 10:18:21;;;;;;;8.07;5.75;;;12.60;99.90;;;;;;5077464;28;20035;-86
2022/12/14 10:21:03;;;;;;;8.43;6.82;;;12.60;99.90;;;;;;5064273;28;20119;-85
2022/12/14 10:23:30;;;;;;;10.18;5.68;;;12.70;99.90;;;;;;5079695;28;20059;-86
2022/12/14 10:26:10;;;;;;;8.10;5.20;;;12.80;99.90;;;;;;5091191;28;20031;-85
2022/12/14 10:29:20;;;;;;;7.30;5.07;;;12.90;99.90;;;;;;5063021;28;20464;-85
2022/12/14 10:32:11;;;;;;;7.85;5.68;;;12.90;99.90;;;;;;5030158;28;20025;-85
2022/12/14 10:34:42;;;;;;;9.68;6.82;;;12.90;99.90;;;;;;5012794;28;20037;-86
2022/12/14 10:37:46;;;;;;;13.45;7.85;;;12.90;99.90;;;;;;5068897;28;20046;-84
2022/12/14 10:40:32;;;;;;;7.75;6.75;;;12.90;99.90;;;;;;5005927;28;20057;-84
2022/12/14 10:43:23;;;;;;;9.95;5.97;;;12.80;99.90;;;;;;5067005;28;20029;-85
2022/12/14 10:46:14;;;;;;;36.17;17.85;;;12.80;99.90;;;;;;5077183;28;20035;-85
2022/12/14 10:48:40;;;;;;;;;;;13.00;99.90;;;;;;5085620;28;20085;-85
2022/12/14 10:51:14;;;;;;;12.50;7.60;;;13.10;99.90;;;;;;5076853;28;20405;-86
2022/12/14 10:53:56;;;;;;;115.63;54.63;;;13.10;99.90;;;;;;5092084;28;20039;-85
2022/12/14 10:56:31;;;;;;;39.40;21.83;;;13.20;99.90;;;;;;5076635;28;20056;-85
2022/12/14 10:59:25;;;;;;;10.40;5.68;;;13.20;99.90;;;;;;5069629;28;20036;-85
2022/12/14 11:01:56;;;;;;;10.90;5.93;;;13.10;99.90;;;;;;5075078;28;20073;-85
2022/12/14 11:04:37;;;;;;;156.82;76.22;;;13.00;99.90;;;;;;5090934;28;20035;-85
2022/12/14 11:07:07;;;;;;;69.57;40.55;;;13.00;99.90;;;;;;5094736;28;20056;-87
2022/12/14 11:09:33;;;;;;;73.63;46.65;;;12.90;99.90;;;;;;5087698;28;20388;-86
2022/12/14 11:12:06;;;;;;;352.23;194.73;;;12.80;99.90;;;;;;5095605;28;20511;-86
2022/12/14 11:14:35;;;;;;;105.75;61.28;;;12.70;99.90;;;;;;5091572;28;20433;-85
2022/12/14 11:17:01;;;;;;;208.73;113.50;;;12.60;99.90;;;;;;5099586;28;20075;-85
2022/12/14 11:19:27;;;;;;;37.30;21.23;;;12.60;99.90;;;;;;5094912;28;20521;-86
2022/12/14 11:22:11;;;;;;;19.88;13.43;;;12.50;99.90;;;;;;5099010;28;20404;-85
2022/12/14 11:24:46;;;;;;;15.50;9.88;;;12.50;99.90;;;;;;5070849;28;20059;-86
2022/12/14 11:27:16;;;;;;;10.45;6.28;;;12.60;99.90;;;;;;5095553;28;20024;-85
2022/12/14 11:29:46;;;;;;;16.35;11.85;;;12.60;99.90;;;;;;5090977;28;20428;-85
2022/12/14 11:32:23;;;;;;;8.10;5.72;;;12.80;99.90;;;;;;5095094;28;20024;-85
2022/12/14 11:34:56;;;;;;;11.45;8.98;;;13.10;99.90;;;;;;5076926;28;20024;-84
2022/12/14 11:37:30;;;;;;;10.85;6.43;;;13.40;99.90;;;;;;5079068;28;20024;-85
2022/12/14 11:40:04;;;;;;;16.05;9.93;;;13.50;99.90;;;;;;5091260;28;20057;-86
2022/12/14 11:42:30;;;;;;;13.18;8.07;;;13.70;99.90;;;;;;5064174;28;20028;-85
2022/12/14 11:45:25;;;;;;;7.25;5.43;;;13.90;99.90;;;;;;5094687;28;20051;-85
2022/12/14 11:48:14;;;;;;;16.40;9.80;;;13.90;99.90;;;;;;5093420;28;20492;-86
2022/12/14 11:50:42;;;;;;;151.93;88.88;;;14.10;99.90;;;;;;5098685;28;20028;-85
2022/12/14 11:53:13;;;;;;;36.28;22.27;;;14.40;99.90;;;;;;5095328;28;20033;-84
2022/12/14 11:55:48;;;;;;;81.22;40.33;;;14.60;99.90;;;;;;5078167;28;20024;-86
2022/12/14 11:58:25;;;;;;;57.88;30.50;;;14.60;99.90;;;;;;5089014;28;20047;-85
2022/12/14 12:00:57;;;;;;;55.08;32.25;;;14.70;99.90;;;;;;5076248;28;20028;-85
2022/12/14 12:03:28;;;;;;;43.88;26.45;;;14.70;99.90;;;;;;5073640;28;20028;-84
2022/12/14 12:06:01;;;;;;;43.08;28.65;;;14.60;99.90;;;;;;5073772;28;20027;-85
2022/12/14 12:08:30;;;;;;;419.58;284.80;;;14.50;99.90;;;;;;5094022;28;20024;-85
2022/12/14 12:10:59;;;;;;;70.80;47.95;;;14.40;99.90;;;;;;5094355;28;20031;-85
2022/12/14 12:13:35;;;;;;;23.48;17.75;;;14.30;99.90;;;;;;5094604;28;20031;-85
2022/12/14 12:16:22;;;;;;;18.33;14.55;;;14.20;99.90;;;;;;5095153;28;20045;-84
2022/12/14 12:19:07;;;;;;;7.93;5.75;;;14.00;99.90;;;;;;5070878;28;20024;-83
2022/12/14 12:21:40;;;;;;;15.02;10.25;;;14.00;99.90;;;;;;5096836;28;20043;-84
2022/12/14 12:24:22;;;;;;;16.65;11.88;;;13.90;99.90;;;;;;5073776;28;20607;-84
2022/12/14 12:26:57;;;;;;;20.48;15.65;;;13.90;99.90;;;;;;5094777;28;20039;-85
2022/12/14 12:29:28;;;;;;;156.55;77.63;;;13.80;99.90;;;;;;5083371;28;20029;-84
2022/12/14 12:32:04;;;;;;;234.68;120.32;;;13.80;99.90;;;;;;5090731;28;20109;-85
2022/12/14 12:34:40;;;;;;;140.30;70.40;;;13.80;99.90;;;;;;5072805;28;20115;-84
2022/12/14 12:37:14;;;;;;;152.02;76.68;;;13.70;99.90;;;;;;5071412;28;20073;-84
2022/12/14 12:39:43;;;;;;;11.68;5.93;;;13.70;99.90;;;;;;5084767;28;20103;-84
2022/12/14 12:42:40;;;;;;;292.33;149.32;;;13.80;99.90;;;;;;5071611;28;20052;-85
2022/12/14 12:45:19;;;;;;;210.40;107.22;;;13.80;99.90;;;;;;5083358;28;20029;-85
2022/12/14 12:48:22;;;;;;;83.47;42.92;;;13.80;99.90;;;;;;5089331;28;20140;-83
2022/12/14 12:50:53;;;;;;;14.48;7.13;;;13.80;99.90;;;;;;5068220;28;20095;-85
2022/12/14 12:53:39;;;;;;;44.67;21.58;;;13.80;99.90;;;;;;5094584;28;20033;-85
2022/12/14 12:56:18;;;;;;;6.47;3.28;;;13.90;99.90;;;;;;5090379;28;20443;-83
2022/12/14 12:58:46;;;;;;;12.35;3.83;;;13.90;99.90;;;;;;5090631;28;20024;-83
2022/12/14 13:01:39;;;;;;;7.97;3.38;;;13.90;99.90;;;;;;5090571;28;20028;-83
2022/12/14 13:04:10;;;;;;;7.10;3.53;;;14.00;99.90;;;;;;5071147;28;20028;-83
2022/12/14 13:06:47;;;;;;;3.92;2.30;;;14.00;99.90;;;;;;5078247;28;20020;-81
2022/12/14 13:09:24;;;;;;;5.97;2.33;;;14.00;99.90;;;;;;5088279;28;20480;-83
2022/12/14 13:11:50;;;;;;;4.13;2.55;;;14.00;99.90;;;;;;5074228;28;20016;-83
2022/12/14 13:14:41;;;;;;;7.65;3.30;;;14.00;99.90;;;;;;5089322;28;20023;-85
2022/12/14 13:17:39;;;;;;;8.85;3.33;;;13.90;99.90;;;;;;5093414;28;20029;-84
2022/12/14 13:20:20;;;;;;;4.47;2.67;;;13.90;99.90;;;;;;5074538;28;20032;-85
2022/12/14 13:22:47;;;;;;;7.15;3.28;;;13.90;99.90;;;;;;5093105;28;20066;-84
2022/12/14 13:25:21;;;;;;;11.77;3.10;;;13.90;99.90;;;;;;5089051;28;20047;-83